Time;durP1;ratioP1;P1;durP2;ratioP2;P2;SDS_P1;SDS_P2;PMS_P1;PMS_P2;Temp;Humidity;BMP_temperature;BMP_pressure;BME280_temperature;BME280_humidity;BME280_pressure;Samples;Min_cycle;Max_cycle;Signal;HPM_P1;HPM_P2
2021/08/22 00:00:45;;;;;;;17.73;16.73;;;24.00;99.60;;;;;;2601956;54;20399;-60
2021/08/22 00:03:17;;;;;;;18.47;17.37;;;24.00;99.60;;;;;;2601905;51;20429;-59
2021/08/22 00:05:46;;;;;;;19.93;18.43;;;24.10;99.60;;;;;;2598431;54;20402;-57
2021/08/22 00:08:16;;;;;;;17.53;16.53;;;24.10;99.60;;;;;;2600525;54;20390;-60
2021/08/22 00:10:45;;;;;;;20.17;18.90;;;24.10;99.60;;;;;;2600781;39;20641;-56
2021/08/22 00:13:14;;;;;;;19.20;17.97;;;24.00;99.90;;;;;;2601042;39;20632;-58
2021/08/22 00:15:43;;;;;;;20.13;18.83;;;24.00;99.60;;;;;;2599399;47;20798;-59
2021/08/22 00:18:12;;;;;;;19.60;18.40;;;24.10;99.60;;;;;;2598824;47;20798;-57
2021/08/22 00:20:44;;;;;;;19.73;18.53;;;24.00;99.60;;;;;;2601370;39;20621;-58
2021/08/22 00:23:13;;;;;;;18.87;17.67;;;24.10;99.60;;;;;;2602619;54;20439;-59
2021/08/22 00:25:43;;;;;;;19.37;18.03;;;24.00;99.60;;;;;;2600492;54;20979;-58
2021/08/22 00:28:12;;;;;;;19.20;18.00;;;24.00;99.60;;;;;;2599521;54;20438;-59
2021/08/22 00:30:41;;;;;;;20.17;18.93;;;24.00;99.50;;;;;;2601659;54;20397;-58
2021/08/22 00:33:10;;;;;;;20.47;19.17;;;24.10;99.60;;;;;;2602997;54;20852;-60
2021/08/22 00:35:39;;;;;;;20.00;18.40;;;24.00;99.60;;;;;;2602237;54;20395;-56
2021/08/22 00:38:11;;;;;;;19.23;17.93;;;24.00;99.60;;;;;;2602409;39;20794;-58
2021/08/22 00:40:40;;;;;;;19.17;17.87;;;24.00;99.70;;;;;;2602878;54;20405;-58
2021/08/22 00:43:10;;;;;;;19.80;18.30;;;24.00;99.60;;;;;;2600712;39;20875;-56
2021/08/22 00:45:40;;;;;;;18.53;17.33;;;24.00;99.60;;;;;;2603211;54;20394;-60
2021/08/22 00:48:09;;;;;;;19.80;18.50;;;24.00;99.60;;;;;;2603301;54;20694;-59
2021/08/22 00:50:39;;;;;;;19.13;18.03;;;24.00;99.70;;;;;;2601885;54;21022;-59
2021/08/22 00:53:11;;;;;;;19.37;18.07;;;24.00;99.60;;;;;;2601500;39;20434;-59
2021/08/22 00:55:40;;;;;;;20.17;18.87;;;24.00;99.60;;;;;;2600372;54;20374;-58
2021/08/22 00:58:09;;;;;;;20.57;19.27;;;24.00;99.70;;;;;;2602166;54;20414;-58
2021/08/22 01:00:39;;;;;;;20.43;19.13;;;24.00;99.70;;;;;;2600996;39;20588;-58
2021/08/22 01:03:18;;;;;;;19.73;18.23;;;24.00;99.70;;;;;;2602634;54;20925;-60
2021/08/22 01:05:58;;;;;;;19.93;18.70;;;24.00;99.70;;;;;;2600447;54;20413;-59
2021/08/22 01:08:34;;;;;;;19.57;18.30;;;24.00;99.70;;;;;;2603158;39;20766;-57
2021/08/22 01:11:07;;;;;;;19.73;18.53;;;24.00;99.70;;;;;;2601734;54;20394;-58
2021/08/22 01:13:40;;;;;;;19.20;18.00;;;24.00;99.70;;;;;;2603054;54;20766;-59
2021/08/22 01:16:11;;;;;;;18.83;17.70;;;24.00;99.70;;;;;;2601687;39;20846;-59
2021/08/22 01:18:44;;;;;;;20.13;18.63;;;24.00;99.70;;;;;;2602060;54;20401;-59
2021/08/22 01:21:15;;;;;;;19.33;18.03;;;24.00;99.70;;;;;;2602323;39;20691;-59
2021/08/22 01:23:53;;;;;;;19.40;18.10;;;24.00;99.70;;;;;;2601632;54;20892;-59
2021/08/22 01:26:27;;;;;;;20.03;18.53;;;24.00;99.70;;;;;;2601516;39;20528;-58
2021/08/22 01:29:01;;;;;;;19.57;18.37;;;24.00;99.70;;;;;;2601643;39;20558;-58
2021/08/22 01:31:35;;;;;;;19.50;18.40;;;24.00;99.70;;;;;;2602265;39;20881;-59
2021/08/22 01:34:07;;;;;;;18.30;17.10;;;24.00;99.70;;;;;;2600680;39;20787;-58
2021/08/22 01:36:41;;;;;;;18.70;17.60;;;24.00;99.70;;;;;;2602538;47;20922;-59
2021/08/22 01:39:13;;;;;;;19.37;18.27;;;24.00;99.70;;;;;;2602163;39;20621;-58
2021/08/22 01:41:43;;;;;;;18.50;17.50;;;24.00;99.70;;;;;;2601898;39;20676;-60
2021/08/22 01:44:17;;;;;;;17.87;16.87;;;24.00;99.70;;;;;;2601129;39;20679;-58
2021/08/22 01:46:47;;;;;;;19.00;17.67;;;24.00;99.70;;;;;;2601804;54;20394;-59
2021/08/22 01:49:22;;;;;;;18.80;17.73;;;24.00;99.70;;;;;;2601872;54;20462;-60
2021/08/22 01:51:51;;;;;;;18.57;17.40;;;24.00;99.70;;;;;;2603252;39;20632;-60
2021/08/22 01:54:20;;;;;;;17.73;16.73;;;24.00;99.70;;;;;;2602378;54;20768;-58
2021/08/22 01:56:49;;;;;;;18.50;17.30;;;24.00;99.70;;;;;;2601778;54;20884;-59
2021/08/22 01:59:24;;;;;;;18.67;17.50;;;24.00;99.70;;;;;;2602972;54;20402;-59
2021/08/22 02:01:54;;;;;;;18.00;16.90;;;24.00;99.70;;;;;;2601672;54;20423;-60
2021/08/22 02:04:32;;;;;;;18.87;17.77;;;24.00;99.70;;;;;;2601290;54;20471;-59
2021/08/22 02:07:05;;;;;;;18.40;17.40;;;24.00;99.70;;;;;;2600997;54;20708;-59
2021/08/22 02:09:38;;;;;;;17.97;16.97;;;24.00;99.70;;;;;;2602397;54;20911;-60
2021/08/22 02:12:16;;;;;;;16.90;16.00;;;24.00;99.70;;;;;;2602749;54;20463;-60
2021/08/22 02:14:50;;;;;;;18.27;17.17;;;24.00;99.70;;;;;;2600853;54;20689;-60
2021/08/22 02:17:23;;;;;;;18.33;17.33;;;24.00;99.70;;;;;;2600900;54;20387;-59
2021/08/22 02:19:57;;;;;;;18.10;17.10;;;24.00;99.70;;;;;;2602416;54;20399;-59
2021/08/22 02:22:27;;;;;;;17.17;16.20;;;24.00;99.70;;;;;;2602725;54;20414;-60
2021/08/22 02:24:57;;;;;;;18.70;17.60;;;24.00;99.70;;;;;;2602770;54;20395;-58
2021/08/22 02:27:26;;;;;;;16.80;15.80;;;24.00;99.70;;;;;;2601993;54;21115;-60
2021/08/22 02:29:55;;;;;;;16.80;15.73;;;24.00;99.70;;;;;;2600199;54;20445;-59
2021/08/22 02:32:28;;;;;;;18.23;17.13;;;24.00;99.70;;;;;;2603090;54;20382;-58
2021/08/22 02:35:00;;;;;;;16.83;15.87;;;24.00;99.70;;;;;;2602815;39;20744;-60
2021/08/22 02:37:30;;;;;;;17.33;16.23;;;24.00;99.70;;;;;;2601779;54;20441;-59
2021/08/22 02:40:00;;;;;;;16.40;15.47;;;24.00;99.70;;;;;;2601770;54;20494;-60
2021/08/22 02:42:29;;;;;;;16.37;15.00;;;24.00;99.70;;;;;;2601596;54;20434;-60
2021/08/22 02:44:58;;;;;;;16.00;15.07;;;24.00;99.70;;;;;;2601526;54;20430;-60
2021/08/22 02:47:28;;;;;;;16.63;15.63;;;24.00;99.70;;;;;;2602107;54;20701;-60
2021/08/22 02:49:59;;;;;;;16.63;15.63;;;24.00;99.70;;;;;;2602524;47;20734;-59
2021/08/22 02:52:28;;;;;;;16.00;15.10;;;24.00;99.70;;;;;;2603394;54;20408;-59
2021/08/22 02:54:57;;;;;;;16.10;15.30;;;24.00;99.70;;;;;;2600878;47;20403;-57
2021/08/22 02:57:27;;;;;;;17.10;15.77;;;24.00;99.70;;;;;;2602007;54;20798;-58
2021/08/22 02:59:56;;;;;;;16.60;15.60;;;24.00;99.70;;;;;;2601176;47;20395;-58
2021/08/22 03:02:25;;;;;;;17.50;16.40;;;24.00;99.70;;;;;;2601624;54;20367;-57
2021/08/22 03:04:54;;;;;;;17.83;16.73;;;24.00;99.70;;;;;;2601416;54;20736;-56
2021/08/22 03:07:26;;;;;;;16.77;15.77;;;24.00;99.70;;;;;;2602090;54;20414;-59
2021/08/22 03:09:55;;;;;;;17.13;16.03;;;24.00;99.70;;;;;;2602075;54;20388;-58
2021/08/22 03:12:24;;;;;;;15.97;15.07;;;24.00;99.70;;;;;;2602815;54;20391;-60
2021/08/22 03:14:53;;;;;;;16.20;15.33;;;24.00;99.90;;;;;;2601417;39;20585;-59
2021/08/22 03:17:22;;;;;;;15.90;15.00;;;24.00;99.70;;;;;;2602931;54;20367;-60
2021/08/22 03:19:51;;;;;;;15.47;14.57;;;24.00;99.70;;;;;;2602870;54;20775;-58
2021/08/22 03:22:23;;;;;;;16.07;15.17;;;24.00;99.80;;;;;;2603426;54;20670;-60
2021/08/22 03:24:55;;;;;;;15.70;14.90;;;24.00;99.70;;;;;;2603532;54;20395;-60
2021/08/22 03:27:24;;;;;;;16.50;15.50;;;24.00;99.70;;;;;;2603997;54;20827;-59
2021/08/22 03:29:54;;;;;;;15.60;14.70;;;24.00;99.80;;;;;;2602057;39;20573;-61
2021/08/22 03:32:23;;;;;;;15.40;14.60;;;24.00;99.70;;;;;;2602176;39;20713;-60
2021/08/22 03:34:52;;;;;;;15.03;14.23;;;24.00;99.70;;;;;;2602602;54;20394;-59
2021/08/22 03:37:21;;;;;;;14.70;13.90;;;24.00;99.80;;;;;;2602606;54;20789;-59
2021/08/22 03:39:51;;;;;;;15.07;14.33;;;24.00;99.80;;;;;;2602188;47;20394;-61
2021/08/22 03:42:22;;;;;;;15.20;14.40;;;24.00;99.80;;;;;;2600944;39;20752;-57
2021/08/22 03:44:51;;;;;;;14.50;13.70;;;24.00;99.80;;;;;;2603302;39;20708;-57
2021/08/22 03:47:20;;;;;;;14.43;13.63;;;24.00;99.70;;;;;;2601633;54;20371;-56
2021/08/22 03:49:50;;;;;;;15.23;14.43;;;24.00;99.70;;;;;;2603687;54;20406;-60
2021/08/22 03:52:19;;;;;;;14.50;13.70;;;24.00;99.70;;;;;;2602949;54;20880;-60
2021/08/22 03:54:49;;;;;;;14.63;13.73;;;24.00;99.70;;;;;;2602457;54;20846;-59
2021/08/22 03:57:18;;;;;;;15.30;14.50;;;24.00;99.70;;;;;;2602869;54;20434;-59
2021/08/22 03:59:49;;;;;;;14.53;13.73;;;24.00;99.70;;;;;;2602092;54;21039;-58
2021/08/22 04:02:20;;;;;;;14.63;13.83;;;24.00;99.70;;;;;;2601191;54;20960;-58
2021/08/22 04:05:08;;;;;;;15.40;14.30;;;24.00;99.70;;;;;;2600898;54;20395;-58
2021/08/22 04:07:37;;;;;;;13.60;12.90;;;24.00;99.70;;;;;;2602263;47;20404;-59
2021/08/22 04:10:08;;;;;;;14.77;13.70;;;24.00;99.70;;;;;;2602801;39;20706;-58
2021/08/22 04:12:39;;;;;;;15.10;14.30;;;24.00;99.80;;;;;;2603403;39;20730;-60
2021/08/22 04:15:12;;;;;;;15.10;14.20;;;24.00;99.70;;;;;;2603020;54;20970;-60
2021/08/22 04:17:41;;;;;;;15.07;14.27;;;24.00;99.70;;;;;;2602018;54;20441;-58
2021/08/22 04:20:11;;;;;;;15.07;14.27;;;24.00;99.70;;;;;;2603312;54;20996;-59
2021/08/22 04:22:40;;;;;;;15.20;14.10;;;24.00;99.70;;;;;;2601542;54;21153;-59
2021/08/22 04:25:12;;;;;;;14.63;13.90;;;24.00;99.70;;;;;;2600644;54;20861;-58
2021/08/22 04:27:42;;;;;;;15.20;14.40;;;24.00;99.80;;;;;;2599329;54;21017;-60
2021/08/22 04:30:15;;;;;;;14.90;14.20;;;24.00;99.80;;;;;;2599260;54;20394;-59
2021/08/22 04:32:44;;;;;;;14.17;13.50;;;24.00;99.80;;;;;;2601879;54;20383;-58
2021/08/22 04:35:14;;;;;;;14.53;13.77;;;24.00;99.70;;;;;;2600991;39;20708;-60
2021/08/22 04:37:43;;;;;;;14.67;13.87;;;24.00;99.80;;;;;;2600021;54;20409;-60
2021/08/22 04:40:13;;;;;;;14.33;13.43;;;24.00;99.90;;;;;;2601535;47;20411;-59
2021/08/22 04:42:43;;;;;;;15.00;14.20;;;24.00;99.80;;;;;;2599463;54;20484;-60
2021/08/22 04:45:14;;;;;;;13.60;12.97;;;24.00;99.70;;;;;;2600623;54;20438;-59
2021/08/22 04:47:45;;;;;;;14.13;13.40;;;24.00;99.80;;;;;;2600429;54;20653;-57
2021/08/22 04:50:14;;;;;;;14.33;13.63;;;24.00;99.80;;;;;;2601289;54;20391;-60
2021/08/22 04:52:43;;;;;;;14.53;13.83;;;24.00;99.80;;;;;;2601733;54;20434;-59
2021/08/22 04:55:13;;;;;;;14.27;13.57;;;24.00;99.70;;;;;;2601857;39;20737;-59
2021/08/22 04:57:42;;;;;;;14.23;13.53;;;24.00;99.70;;;;;;2601502;54;20407;-60
2021/08/22 05:00:15;;;;;;;14.83;13.93;;;24.00;99.90;;;;;;2602113;39;20613;-58
2021/08/22 05:02:58;;;;;;;14.23;13.50;;;24.00;99.80;;;;;;2601776;54;20407;-60
2021/08/22 05:05:27;;;;;;;14.10;13.30;;;24.00;99.70;;;;;;2598869;47;20528;-59
2021/08/22 05:07:59;;;;;;;14.00;13.20;;;24.00;99.70;;;;;;2601031;54;20759;-58
2021/08/22 05:10:28;;;;;;;15.27;14.47;;;24.00;99.70;;;;;;2601599;39;20660;-60
2021/08/22 05:12:58;;;;;;;13.97;13.17;;;24.00;99.70;;;;;;2601366;39;20613;-60
2021/08/22 05:15:30;;;;;;;14.30;13.60;;;24.00;99.80;;;;;;2601441;54;20885;-57
2021/08/22 05:17:59;;;;;;;13.77;13.07;;;24.00;99.80;;;;;;2600945;54;20848;-58
2021/08/22 05:20:28;;;;;;;14.50;13.67;;;24.00;99.80;;;;;;2599353;54;20904;-60
2021/08/22 05:22:57;;;;;;;14.97;14.10;;;24.00;99.70;;;;;;2599921;47;20426;-59
2021/08/22 05:25:26;;;;;;;14.20;13.50;;;24.00;99.80;;;;;;2600266;39;20654;-59
2021/08/22 05:27:55;;;;;;;14.37;13.57;;;24.00;99.80;;;;;;2599802;54;20716;-59
2021/08/22 05:30:24;;;;;;;14.17;13.47;;;24.00;99.80;;;;;;2598678;54;20401;-57
2021/08/22 05:32:56;;;;;;;13.40;12.80;;;24.00;99.80;;;;;;2600412;54;20880;-59
2021/08/22 05:35:25;;;;;;;14.27;13.17;;;24.00;99.80;;;;;;2601073;54;20556;-61
2021/08/22 05:37:55;;;;;;;14.87;13.97;;;24.00;99.80;;;;;;2600781;54;20984;-60
2021/08/22 05:40:24;;;;;;;14.73;14.03;;;24.00;99.80;;;;;;2600189;39;20769;-58
2021/08/22 05:42:53;;;;;;;14.53;13.70;;;24.00;99.80;;;;;;2599963;54;20838;-60
2021/08/22 05:45:22;;;;;;;14.03;13.33;;;24.00;99.80;;;;;;2600511;54;20491;-59
2021/08/22 05:47:51;;;;;;;14.50;13.80;;;24.00;99.80;;;;;;2599433;54;20399;-60
2021/08/22 05:50:24;;;;;;;14.30;13.60;;;24.00;99.80;;;;;;2600299;54;20398;-59
2021/08/22 05:52:53;;;;;;;14.60;13.70;;;24.00;99.80;;;;;;2599436;47;21175;-59
2021/08/22 05:55:22;;;;;;;13.90;13.27;;;24.00;99.80;;;;;;2602990;39;20787;-60
2021/08/22 05:57:52;;;;;;;14.10;13.40;;;24.00;99.90;;;;;;2603821;47;20427;-59
2021/08/22 06:00:21;;;;;;;13.47;12.77;;;24.00;99.80;;;;;;2602094;54;20395;-59
2021/08/22 06:02:50;;;;;;;14.30;13.70;;;24.00;99.80;;;;;;2600923;54;20873;-59
2021/08/22 06:05:19;;;;;;;13.63;12.93;;;24.00;99.80;;;;;;2599428;39;20671;-59
2021/08/22 06:07:51;;;;;;;13.20;12.50;;;24.00;99.80;;;;;;2599437;54;20774;-59
2021/08/22 06:10:20;;;;;;;13.80;13.10;;;24.00;99.80;;;;;;2598705;39;20705;-60
2021/08/22 06:12:50;;;;;;;13.87;13.17;;;24.00;99.80;;;;;;2597668;54;20403;-59
2021/08/22 06:15:19;;;;;;;13.27;12.63;;;24.00;99.80;;;;;;2597976;54;20386;-60
2021/08/22 06:17:48;;;;;;;13.17;12.57;;;24.00;99.80;;;;;;2597133;39;20590;-58
2021/08/22 06:20:17;;;;;;;13.57;12.87;;;24.00;99.80;;;;;;2598732;39;20711;-59
2021/08/22 06:22:46;;;;;;;13.93;13.23;;;24.00;99.80;;;;;;2597826;54;21102;-58
2021/08/22 06:25:18;;;;;;;14.23;13.43;;;24.00;99.80;;;;;;2598347;54;20402;-57
2021/08/22 06:27:47;;;;;;;13.40;12.80;;;24.00;99.80;;;;;;2597909;54;20429;-59
2021/08/22 06:30:17;;;;;;;14.60;13.80;;;24.00;99.80;;;;;;2598444;46;20379;-58
2021/08/22 06:32:46;;;;;;;15.00;14.20;;;24.00;99.80;;;;;;2598305;54;20410;-58
2021/08/22 06:35:15;;;;;;;14.27;13.43;;;24.00;99.80;;;;;;2598676;54;20387;-59
2021/08/22 06:37:45;;;;;;;14.00;13.20;;;24.00;99.80;;;;;;2600349;54;20394;-58
2021/08/22 06:40:15;;;;;;;14.60;13.73;;;24.00;99.80;;;;;;2600003;54;21014;-59
2021/08/22 06:42:47;;;;;;;13.67;13.00;;;24.00;99.90;;;;;;2598515;47;20442;-60
2021/08/22 06:45:16;;;;;;;14.50;13.70;;;24.00;99.90;;;;;;2598794;54;20798;-59
2021/08/22 06:47:46;;;;;;;14.87;14.07;;;24.00;99.80;;;;;;2600107;54;20726;-58
2021/08/22 06:50:16;;;;;;;13.90;13.07;;;24.00;99.90;;;;;;2598833;47;20537;-60
2021/08/22 06:52:46;;;;;;;14.97;14.17;;;24.00;99.90;;;;;;2599788;54;20410;-60
2021/08/22 06:55:15;;;;;;;13.90;13.20;;;24.00;99.90;;;;;;2600891;54;20451;-58
2021/08/22 06:57:47;;;;;;;13.83;13.13;;;24.00;99.90;;;;;;2600279;54;20446;-59
2021/08/22 07:00:18;;;;;;;13.90;13.20;;;24.00;99.90;;;;;;2598296;39;20694;-58
2021/08/22 07:02:47;;;;;;;15.00;14.20;;;24.00;99.90;;;;;;2599535;54;20777;-59
2021/08/22 07:05:16;;;;;;;14.07;13.43;;;24.00;99.90;;;;;;2598101;54;20429;-59
2021/08/22 07:07:45;;;;;;;15.30;14.40;;;24.00;99.90;;;;;;2596785;54;20422;-59
2021/08/22 07:10:15;;;;;;;14.43;13.53;;;24.00;99.90;;;;;;2598448;39;20763;-59
2021/08/22 07:12:46;;;;;;;14.73;13.80;;;24.10;99.90;;;;;;2598752;39;20717;-59
2021/08/22 07:15:15;;;;;;;14.33;13.50;;;24.10;99.90;;;;;;2599145;54;20655;-59
2021/08/22 07:17:45;;;;;;;13.43;12.73;;;24.00;99.90;;;;;;2597595;39;20714;-60
2021/08/22 07:20:15;;;;;;;14.43;13.47;;;24.00;99.90;;;;;;2596261;54;20397;-58
2021/08/22 07:22:44;;;;;;;13.67;12.90;;;24.00;99.90;;;;;;2598101;54;20374;-58
2021/08/22 07:25:14;;;;;;;13.97;13.13;;;24.00;99.90;;;;;;2598205;54;20410;-58
2021/08/22 07:27:43;;;;;;;13.80;13.10;;;24.10;99.90;;;;;;2598900;54;21164;-59
2021/08/22 07:30:15;;;;;;;14.10;13.20;;;24.00;99.90;;;;;;2599189;54;20413;-60
2021/08/22 07:32:44;;;;;;;14.33;13.43;;;24.00;99.90;;;;;;2597798;54;21094;-58
2021/08/22 07:35:14;;;;;;;14.40;13.60;;;24.10;99.90;;;;;;2596238;54;21082;-59
2021/08/22 07:37:43;;;;;;;13.73;13.13;;;24.00;99.90;;;;;;2599577;39;20693;-60
2021/08/22 07:40:12;;;;;;;15.13;13.97;;;24.00;99.90;;;;;;2599184;39;20789;-59
2021/08/22 07:42:41;;;;;;;14.97;14.17;;;24.00;99.90;;;;;;2598550;54;20810;-60
2021/08/22 07:45:12;;;;;;;14.63;13.73;;;24.00;99.90;;;;;;2597847;39;20742;-60
2021/08/22 07:47:44;;;;;;;14.43;13.73;;;24.00;99.90;;;;;;2597576;54;20446;-58
2021/08/22 07:50:13;;;;;;;14.30;13.63;;;24.00;99.90;;;;;;2599856;54;20363;-60
2021/08/22 07:52:42;;;;;;;14.70;13.80;;;24.10;99.90;;;;;;2600813;54;20391;-59
2021/08/22 07:55:13;;;;;;;14.43;13.63;;;24.00;99.90;;;;;;2598136;54;20371;-59
2021/08/22 07:57:42;;;;;;;14.73;13.93;;;24.00;99.90;;;;;;2595996;39;20768;-58
2021/08/22 08:00:13;;;;;;;15.17;14.20;;;24.00;99.90;;;;;;2595878;39;20614;-60
2021/08/22 08:02:45;;;;;;;15.90;14.50;;;24.10;99.90;;;;;;2596704;54;20414;-58
2021/08/22 08:05:14;;;;;;;14.50;13.70;;;24.10;99.90;;;;;;2597308;54;20379;-60
2021/08/22 08:07:44;;;;;;;15.50;14.17;;;24.00;99.90;;;;;;2599012;54;20821;-59
2021/08/22 08:10:14;;;;;;;14.40;13.33;;;24.10;99.90;;;;;;2596105;54;20747;-59
2021/08/22 08:12:43;;;;;;;14.70;13.90;;;24.00;99.90;;;;;;2595185;54;20835;-59
2021/08/22 08:15:13;;;;;;;14.27;13.40;;;24.10;99.90;;;;;;2595552;54;20403;-61
2021/08/22 08:17:45;;;;;;;15.30;14.40;;;24.10;99.90;;;;;;2594703;39;20645;-56
2021/08/22 08:20:15;;;;;;;13.83;13.03;;;24.10;99.90;;;;;;2596885;54;20414;-59
2021/08/22 08:22:45;;;;;;;14.00;13.20;;;24.10;99.90;;;;;;2596532;54;20398;-59
2021/08/22 08:25:14;;;;;;;15.07;13.83;;;24.10;99.90;;;;;;2597806;47;20403;-59
2021/08/22 08:27:43;;;;;;;14.07;13.27;;;24.10;99.90;;;;;;2595131;54;20403;-60
2021/08/22 08:30:13;;;;;;;13.60;12.80;;;24.00;99.90;;;;;;2596354;54;20542;-60
2021/08/22 08:32:46;;;;;;;14.30;13.30;;;24.10;99.90;;;;;;2597482;54;20772;-59
2021/08/22 08:35:23;;;;;;;14.00;13.07;;;24.10;99.90;;;;;;2597256;54;20410;-59
2021/08/22 08:37:52;;;;;;;15.20;14.40;;;24.10;99.90;;;;;;2597344;54;20399;-58
2021/08/22 08:40:21;;;;;;;14.97;13.80;;;24.10;99.90;;;;;;2598101;47;20416;-59
2021/08/22 08:42:52;;;;;;;14.43;13.70;;;24.10;99.90;;;;;;2598059;54;21348;-60
2021/08/22 08:45:23;;;;;;;14.37;13.43;;;24.10;99.90;;;;;;2596316;54;20391;-60
2021/08/22 08:47:55;;;;;;;14.20;13.40;;;24.10;99.90;;;;;;2597518;39;20727;-58
2021/08/22 08:50:27;;;;;;;15.03;14.23;;;24.10;99.90;;;;;;2597639;54;20371;-60
2021/08/22 08:53:00;;;;;;;14.77;13.97;;;24.10;99.90;;;;;;2598678;54;20402;-59
2021/08/22 08:55:30;;;;;;;14.37;13.67;;;24.10;99.90;;;;;;2600748;39;20695;-58
2021/08/22 08:58:01;;;;;;;14.40;13.70;;;24.10;99.90;;;;;;2596713;54;20434;-59
2021/08/22 09:00:33;;;;;;;14.30;13.50;;;24.10;99.90;;;;;;2598018;54;20391;-60
2021/08/22 09:03:04;;;;;;;14.77;13.97;;;24.10;99.90;;;;;;2595805;54;20375;-59
2021/08/22 09:06:16;;;;;;;14.53;13.70;;;24.10;99.90;;;;;;2595804;54;20414;-60
2021/08/22 09:09:26;;;;;;;13.47;12.87;;;24.10;99.90;;;;;;2596074;54;20425;-57
2021/08/22 09:12:37;;;;;;;14.57;13.77;;;24.10;99.90;;;;;;2598772;54;20698;-57
2021/08/22 09:15:57;;;;;;;14.30;13.40;;;24.10;99.90;;;;;;2597852;54;20470;-57
2021/08/22 09:18:56;;;;;;;14.13;13.40;;;24.10;99.90;;;;;;2596232;54;20475;-55
2021/08/22 09:21:56;;;;;;;13.87;13.27;;;24.00;99.90;;;;;;2597723;54;21313;-58
2021/08/22 09:24:55;;;;;;;13.30;12.70;;;24.00;99.90;;;;;;2602432;39;20635;-58
2021/08/22 09:27:54;;;;;;;13.63;13.03;;;24.00;99.90;;;;;;2601561;39;20601;-58
2021/08/22 09:30:52;;;;;;;13.53;12.83;;;24.00;99.90;;;;;;2601658;39;20731;-56
2021/08/22 09:33:52;;;;;;;13.77;13.17;;;24.00;99.90;;;;;;2600474;54;20876;-57
2021/08/22 09:36:51;;;;;;;14.63;13.80;;;23.90;99.90;;;;;;2601677;54;21154;-55
2021/08/22 09:40:02;;;;;;;14.10;13.30;;;23.90;99.90;;;;;;2601029;54;20367;-56
2021/08/22 09:43:06;;;;;;;13.13;12.53;;;23.80;99.90;;;;;;2602540;47;20461;-58
2021/08/22 09:46:08;;;;;;;13.40;12.70;;;23.80;99.90;;;;;;2604673;54;20502;-58
2021/08/22 09:49:10;;;;;;;14.30;13.53;;;23.80;99.90;;;;;;2606014;39;20658;-57
2021/08/22 09:52:09;;;;;;;14.50;13.40;;;23.80;99.90;;;;;;2603051;47;20422;-58
2021/08/22 09:55:16;;;;;;;13.73;13.03;;;23.80;99.90;;;;;;2602868;54;20394;-57
2021/08/22 09:58:25;;;;;;;12.97;12.37;;;23.80;99.90;;;;;;2602277;54;20461;-57
2021/08/22 10:01:17;;;;;;;13.93;13.20;;;23.90;99.90;;;;;;2601190;54;20855;-55
2021/08/22 10:04:22;;;;;;;14.13;13.30;;;23.90;99.90;;;;;;2602913;54;20746;-57
2021/08/22 10:07:06;;;;;;;13.20;12.50;;;23.90;99.90;;;;;;2602899;54;20833;-56
2021/08/22 10:09:37;;;;;;;13.30;12.60;;;23.90;99.90;;;;;;2603153;39;20628;-56
2021/08/22 10:12:07;;;;;;;13.63;12.73;;;23.90;99.90;;;;;;2602965;54;20533;-54
2021/08/22 10:14:39;;;;;;;22.40;12.53;;;23.90;99.90;;;;;;2605094;54;20462;-56
2021/08/22 10:17:18;;;;;;;12.90;12.00;;;23.90;99.90;;;;;;2604096;47;20429;-54
2021/08/22 10:19:49;;;;;;;13.73;12.50;;;24.00;99.90;;;;;;2600485;49;20429;-54
2021/08/22 10:22:19;;;;;;;12.40;11.70;;;24.00;99.90;;;;;;2603447;54;20433;-55
2021/08/22 10:24:54;;;;;;;12.70;12.07;;;24.00;99.90;;;;;;2603522;54;20914;-57
2021/08/22 10:27:59;;;;;;;12.87;11.97;;;24.00;99.90;;;;;;2602806;39;20801;-56
2021/08/22 10:30:29;;;;;;;11.87;11.17;;;24.00;99.90;;;;;;2601894;54;20390;-57
2021/08/22 10:33:20;;;;;;;12.90;11.90;;;24.10;99.90;;;;;;2604126;54;21269;-54
2021/08/22 10:35:49;;;;;;;12.70;12.10;;;24.10;99.90;;;;;;2603730;54;20538;-58
